createdAt,value
2019-04-26T00:01:30.943Z,1.93
2019-04-26T00:04:03.479Z,2.10
2019-04-26T00:06:35.296Z,2.80
2019-04-26T00:09:22.191Z,2.17
2019-04-26T00:12:05.746Z,2.47
2019-04-26T00:14:56.036Z,2.77
2019-04-26T00:17:37.877Z,2.90
2019-04-26T00:20:11.507Z,2.40
2019-04-26T00:22:43.757Z,3.20
2019-04-26T00:25:16.527Z,2.50
2019-04-26T00:27:48.481Z,2.97
2019-04-26T00:30:21.253Z,3.07
2019-04-26T00:32:53.113Z,2.97
2019-04-26T00:35:24.824Z,3.40
2019-04-26T00:37:56.645Z,2.90
2019-04-26T00:40:28.369Z,2.83
2019-04-26T00:43:02.117Z,3.10
2019-04-26T00:45:36.353Z,3.30
2019-04-26T00:48:10.332Z,2.87
2019-04-26T00:50:43.205Z,3.27
2019-04-26T00:53:17.517Z,4.10
2019-04-26T00:55:50.139Z,3.17
2019-04-26T00:58:23.162Z,3.60
2019-04-26T01:00:54.975Z,3.47
2019-04-26T01:03:26.778Z,3.30
2019-04-26T01:06:00.790Z,3.60
2019-04-26T01:08:32.506Z,3.67
2019-04-26T01:11:04.213Z,3.40
2019-04-26T01:13:35.929Z,3.77
2019-04-26T01:16:07.751Z,3.50
2019-04-26T01:18:41.248Z,3.67
2019-04-26T01:21:18.473Z,4.03
2019-04-26T01:23:53.572Z,3.90
2019-04-26T01:26:29.724Z,3.97
2019-04-26T01:29:05.394Z,4.10
2019-04-26T01:31:43.708Z,4.00
2019-04-26T01:34:15.515Z,4.23
2019-04-26T01:36:49.757Z,4.07
2019-04-26T01:39:23.737Z,4.30
2019-04-26T01:42:02.988Z,3.87
2019-04-26T01:44:53.592Z,4.43
2019-04-26T01:47:26.232Z,5.33
2019-04-26T01:49:58.496Z,4.50
2019-04-26T01:52:30.429Z,4.97
2019-04-26T01:55:03.243Z,4.93
2019-04-26T01:57:35.855Z,5.10
2019-04-26T02:00:25.577Z,4.77
2019-04-26T02:03:00.505Z,5.17
2019-04-26T02:05:32.400Z,4.97
2019-04-26T02:08:04.332Z,5.10
2019-04-26T02:10:36.240Z,5.10
2019-04-26T02:13:08.167Z,5.23
2019-04-26T02:15:40.057Z,5.30
2019-04-26T02:18:11.918Z,6.07
2019-04-26T02:20:53.920Z,6.07
2019-04-26T02:23:32.117Z,5.57
2019-04-26T02:26:26.782Z,5.77
2019-04-26T02:28:58.967Z,5.20
2019-04-26T02:31:31.523Z,6.27
2019-04-26T02:34:05.841Z,6.23
2019-04-26T02:36:56.444Z,6.07
2019-04-26T02:39:17.654Z,6.23
2019-04-26T02:41:52.356Z,6.83
2019-04-26T02:44:34.493Z,6.17
2019-04-26T02:47:50.332Z,5.63
2019-04-26T02:50:32.719Z,6.33
2019-04-26T02:53:17.735Z,6.30
2019-04-26T02:56:19.995Z,6.87
2019-04-26T02:59:38.148Z,6.50
2019-04-26T03:02:19.624Z,7.67
2019-04-26T03:04:55.705Z,6.37
2019-04-26T03:07:56.274Z,7.23
2019-04-26T03:10:36.830Z,6.77
2019-04-26T03:13:19.585Z,7.77
2019-04-26T03:16:08.119Z,6.97
2019-04-26T03:19:04.652Z,6.80
2019-04-26T03:21:45.272Z,7.47
2019-04-26T03:24:24.081Z,7.37
2019-04-26T03:27:43.366Z,7.93
2019-04-26T03:30:33.354Z,6.80
2019-04-26T03:33:19.176Z,7.33
2019-04-26T03:36:18.510Z,7.10
2019-04-26T03:39:15.464Z,7.13
2019-04-26T03:42:20.619Z,8.00
2019-04-26T03:45:08.964Z,7.10
2019-04-26T03:47:48.002Z,6.83
2019-04-26T03:50:27.845Z,7.10
2019-04-26T03:53:23.962Z,8.10
2019-04-26T03:56:27.969Z,8.90
2019-04-26T03:59:14.089Z,7.80
2019-04-26T04:02:01.595Z,7.23
2019-04-26T04:04:45.522Z,7.23
2019-04-26T04:07:36.046Z,7.80
2019-04-26T04:10:03.828Z,7.23
2019-04-26T04:12:57.905Z,8.27
2019-04-26T04:15:39.904Z,8.07
2019-04-26T04:18:19.741Z,8.63
2019-04-26T04:21:33.366Z,8.50
2019-04-26T04:24:31.109Z,7.37
2019-04-26T04:27:27.734Z,8.67
2019-04-26T04:30:10.086Z,8.40
2019-04-26T04:33:26.044Z,8.07
2019-04-26T04:36:05.428Z,7.77
2019-04-26T04:39:11.325Z,8.57
2019-04-26T04:42:05.429Z,8.20
2019-04-26T04:45:07.828Z,8.30
2019-04-26T04:47:54.346Z,8.00
2019-04-26T04:50:39.270Z,8.63
2019-04-26T04:53:38.197Z,7.83
2019-04-26T04:57:01.068Z,8.50
2019-04-26T04:59:44.081Z,8.57
2019-04-26T05:02:36.852Z,8.70
2019-04-26T05:05:47.629Z,8.13
2019-04-26T05:08:30.938Z,9.43
2019-04-26T05:11:16.361Z,9.07
2019-04-26T05:14:18.261Z,8.70
2019-04-26T05:17:15.328Z,9.40
2019-04-26T05:20:07.260Z,8.33
2019-04-26T05:23:08.514Z,8.70
2019-04-26T05:26:51.536Z,8.67
2019-04-26T05:30:26.311Z,8.90
2019-04-26T05:33:09.423Z,8.73
2019-04-26T05:36:10.679Z,10.10
2019-04-26T05:38:57.638Z,8.80
2019-04-26T05:41:58.793Z,9.37
2019-04-26T05:45:11.898Z,7.97
2019-04-26T05:48:16.494Z,8.20
2019-04-26T05:51:36.754Z,8.05
2019-04-26T05:55:06.282Z,8.50
2019-04-26T05:58:23.806Z,8.43
2019-04-26T06:01:34.969Z,8.08
2019-04-26T06:04:27.701Z,7.78
2019-04-26T06:07:13.512Z,8.48
2019-04-26T06:10:28.457Z,8.10
2019-04-26T06:13:11.888Z,8.48
2019-04-26T06:16:00.341Z,8.88
2019-04-26T06:18:51.683Z,8.73
2019-04-26T06:21:52.205Z,8.53
2019-04-26T06:25:23.869Z,8.05
2019-04-26T06:28:01.199Z,8.03
2019-04-26T06:30:49.195Z,8.00
2019-04-26T06:33:34.479Z,8.10
2019-04-26T06:36:14.496Z,8.68
2019-04-26T06:39:18.317Z,8.05
2019-04-26T06:42:06.349Z,8.48
2019-04-26T06:45:08.837Z,8.75
2019-04-26T06:47:52.909Z,8.90
2019-04-26T06:50:37.313Z,8.35
2019-04-26T06:53:30.758Z,8.38
2019-04-26T06:56:20.057Z,8.28
2019-04-26T06:59:22.378Z,7.72
2019-04-26T07:02:03.973Z,7.95
2019-04-26T07:05:06.960Z,8.18
2019-04-26T07:08:06.889Z,9.00
2019-04-26T07:10:52.746Z,10.48
2019-04-26T07:13:49.697Z,8.68
2019-04-26T07:16:32.633Z,9.08
2019-04-26T07:19:50.311Z,9.18
2019-04-26T07:23:05.954Z,8.63
2019-04-26T07:26:33.515Z,7.15
2019-04-26T07:29:33.425Z,8.88
2019-04-26T07:32:16.930Z,8.58
2019-04-26T07:35:06.639Z,9.33
2019-04-26T07:38:15.804Z,8.08
2019-04-26T07:41:11.781Z,6.75
2019-04-26T07:44:18.436Z,7.53
2019-04-26T07:47:44.518Z,7.20
2019-04-26T07:50:50.881Z,6.85
2019-04-26T07:54:26.149Z,7.17
2019-04-26T07:57:38.033Z,6.85
2019-04-26T08:00:20.227Z,6.53
2019-04-26T08:03:15.147Z,5.95
2019-04-26T08:06:22.849Z,7.40
2019-04-26T08:09:06.009Z,6.10
2019-04-26T08:11:51.320Z,7.20
2019-04-26T08:14:45.771Z,6.33
2019-04-26T08:17:44.030Z,6.03
2019-04-26T08:20:50.357Z,6.20
2019-04-26T08:23:41.106Z,7.47
2019-04-26T08:26:13.389Z,7.83
2019-04-26T08:28:48.537Z,7.55
2019-04-26T08:31:24.311Z,7.50
2019-04-26T08:34:03.101Z,7.17
2019-04-26T08:36:42.248Z,6.47
2019-04-26T08:39:19.482Z,6.80
2019-04-26T08:41:53.626Z,7.20
2019-04-26T08:44:47.001Z,7.33
2019-04-26T08:47:40.519Z,8.05
2019-04-26T08:50:17.681Z,7.72
2019-04-26T08:52:50.994Z,8.03
2019-04-26T08:55:24.706Z,8.15
2019-04-26T08:58:00.549Z,6.67
2019-04-26T09:00:47.307Z,6.50
2019-04-26T09:03:32.431Z,5.85
2019-04-26T09:06:35.097Z,5.70
2019-04-26T09:09:14.407Z,6.35
2019-04-26T09:11:59.511Z,5.58
2019-04-26T09:14:28.726Z,5.65
2019-04-26T09:17:00.686Z,6.40
2019-04-26T09:19:32.499Z,6.33
2019-04-26T09:22:13.103Z,5.40
2019-04-26T09:24:50.278Z,6.45
2019-04-26T09:27:36.463Z,5.30
2019-04-26T09:30:33.677Z,5.72
2019-04-26T09:33:10.719Z,5.65
2019-04-26T09:35:42.525Z,6.67
2019-04-26T09:38:14.353Z,6.20
2019-04-26T09:40:46.084Z,6.00
2019-04-26T09:43:44.704Z,6.00
2019-04-26T09:46:34.489Z,6.58
2019-04-26T09:49:24.376Z,6.00
2019-04-26T09:51:56.413Z,5.83
2019-04-26T09:54:28.121Z,5.95
2019-04-26T09:56:59.944Z,6.20
2019-04-26T09:59:31.684Z,5.75
2019-04-26T10:02:04.196Z,5.85
2019-04-26T10:04:35.947Z,6.28
2019-04-26T10:07:07.981Z,5.80
2019-04-26T10:09:39.848Z,6.62
2019-04-26T10:12:27.474Z,5.65
2019-04-26T10:15:16.007Z,5.33
2019-04-26T10:17:50.204Z,5.03
2019-04-26T10:20:22.132Z,5.40
2019-04-26T10:22:53.868Z,5.40
2019-04-26T10:25:25.705Z,5.17
2019-04-26T10:27:57.440Z,6.85
2019-04-26T10:30:29.158Z,6.42
2019-04-26T10:33:02.283Z,5.67
2019-04-26T10:35:34.517Z,6.28
2019-04-26T10:38:06.222Z,6.08
2019-04-26T10:40:38.144Z,4.80
2019-04-26T10:43:10.157Z,4.00
2019-04-26T10:45:45.911Z,4.62
2019-04-26T10:48:15.792Z,3.52
2019-04-26T10:50:47.745Z,3.72
2019-04-26T10:53:39.235Z,4.15
2019-04-26T10:56:27.322Z,4.33
2019-04-26T10:59:13.242Z,3.92
2019-04-26T11:01:45.167Z,3.98
2019-04-26T11:04:17.064Z,3.00
2019-04-26T11:06:50.034Z,5.60
2019-04-26T11:09:21.777Z,3.40
2019-04-26T11:11:53.590Z,3.47
2019-04-26T11:14:25.303Z,3.70
2019-04-26T11:16:57.050Z,3.87
2019-04-26T11:19:31.914Z,3.60
2019-04-26T11:22:02.928Z,4.22
2019-04-26T11:24:34.632Z,3.47
2019-04-26T11:27:09.576Z,2.70
2019-04-26T11:29:40.097Z,3.62
2019-04-26T11:32:11.916Z,2.90
2019-04-26T11:34:43.763Z,3.17
2019-04-26T11:37:17.999Z,2.83
2019-04-26T11:39:49.238Z,2.87
2019-04-26T11:42:21.110Z,3.00
2019-04-26T11:44:52.907Z,3.15
2019-04-26T11:47:24.619Z,2.25
2019-04-26T11:49:56.428Z,2.37
2019-04-26T11:52:28.265Z,3.58
2019-04-26T11:55:00.061Z,3.15
2019-04-26T11:57:31.781Z,3.10
2019-04-26T12:00:05.544Z,2.83
2019-04-26T12:02:38.077Z,2.70
2019-04-26T12:05:19.907Z,2.42
2019-04-26T12:07:55.829Z,3.83
2019-04-26T12:10:27.644Z,2.83
2019-04-26T12:13:05.538Z,3.50
2019-04-26T12:15:32.997Z,2.72
2019-04-26T12:18:05.651Z,3.37
2019-04-26T12:20:38.405Z,2.52
2019-04-26T12:23:13.644Z,2.22
2019-04-26T12:25:48.072Z,3.20
2019-04-26T12:28:17.470Z,2.87
2019-04-26T12:30:49.183Z,2.83
2019-04-26T12:33:20.918Z,2.60
2019-04-26T12:35:57.030Z,3.47
2019-04-26T12:38:28.449Z,3.05
2019-04-26T12:40:59.913Z,2.95
2019-04-26T12:43:31.658Z,3.62
2019-04-26T12:46:16.393Z,2.33
2019-04-26T12:48:49.923Z,2.47
2019-04-26T12:51:21.837Z,3.55
2019-04-26T12:53:53.586Z,3.35
2019-04-26T12:56:26.598Z,2.80
2019-04-26T12:58:58.925Z,2.50
2019-04-26T13:01:30.789Z,3.02
2019-04-26T13:04:03.767Z,2.52
2019-04-26T13:06:41.128Z,2.98
2019-04-26T13:09:16.689Z,2.45
2019-04-26T13:12:09.186Z,2.37
2019-04-26T13:15:00.631Z,2.40
2019-04-26T13:17:44.643Z,2.17
2019-04-26T13:20:16.440Z,2.90
2019-04-26T13:22:50.188Z,1.80
2019-04-26T13:25:26.476Z,1.98
2019-04-26T13:27:55.628Z,1.98
2019-04-26T13:30:33.009Z,2.33
2019-04-26T13:33:01.101Z,1.62
2019-04-26T13:35:32.911Z,3.25
2019-04-26T13:38:05.092Z,3.00
2019-04-26T13:40:40.256Z,4.00
2019-04-26T13:43:12.122Z,2.37
2019-04-26T13:46:08.719Z,2.65
2019-04-26T13:48:51.256Z,2.37
2019-04-26T13:51:23.940Z,1.85
2019-04-26T13:53:55.661Z,3.22
2019-04-26T13:56:27.404Z,2.20
2019-04-26T13:58:59.873Z,2.08
2019-04-26T14:01:31.876Z,2.58
2019-04-26T14:04:06.857Z,2.60
2019-04-26T14:06:37.300Z,1.60
2019-04-26T14:09:10.755Z,2.37
2019-04-26T14:11:42.453Z,2.67
2019-04-26T14:14:14.300Z,3.35
2019-04-26T14:16:46.124Z,1.90
2019-04-26T14:19:17.952Z,1.80
2019-04-26T14:21:49.875Z,2.20
2019-04-26T14:24:34.174Z,2.75
2019-04-26T14:27:14.966Z,1.70
2019-04-26T14:29:46.466Z,1.80
2019-04-26T14:32:18.196Z,2.58
2019-04-26T14:34:50.053Z,1.98
2019-04-26T14:37:21.895Z,1.70
2019-04-26T14:39:55.270Z,2.30
2019-04-26T14:42:35.290Z,1.90
2019-04-26T14:45:02.209Z,2.45
2019-04-26T14:47:46.872Z,1.65
2019-04-26T14:50:14.146Z,3.55
2019-04-26T14:52:42.262Z,2.25
2019-04-26T14:55:16.524Z,2.25
2019-04-26T14:57:51.293Z,2.62
2019-04-26T15:00:26.873Z,1.82
2019-04-26T15:03:04.459Z,1.70
2019-04-26T15:05:51.488Z,1.65
2019-04-26T15:08:23.216Z,2.02
2019-04-26T15:11:00.892Z,2.08
2019-04-26T15:13:28.544Z,1.72
2019-04-26T15:16:03.972Z,1.87
2019-04-26T15:18:37.100Z,2.90
2019-04-26T15:21:07.545Z,3.90
2019-04-26T15:23:39.249Z,3.12
2019-04-26T15:26:12.833Z,2.05
2019-04-26T15:28:50.083Z,2.00
2019-04-26T15:31:21.666Z,2.42
2019-04-26T15:33:52.871Z,1.65
2019-04-26T15:36:24.908Z,2.15
2019-04-26T15:38:57.444Z,2.22
2019-04-26T15:41:51.389Z,2.10
2019-04-26T15:44:41.592Z,2.00
2019-04-26T15:47:34.369Z,1.92
2019-04-26T15:50:11.069Z,4.60
2019-04-26T15:52:43.889Z,2.20
2019-04-26T15:55:15.745Z,2.70
2019-04-26T15:57:47.470Z,2.77
2019-04-26T16:00:19.799Z,4.87
2019-04-26T16:02:52.833Z,1.62
2019-04-26T16:05:29.508Z,1.82
2019-04-26T16:08:01.839Z,1.95
2019-04-26T16:10:37.098Z,1.60
2019-04-26T16:13:18.054Z,1.55
2019-04-26T16:15:43.586Z,1.90
2019-04-26T16:18:16.953Z,1.95
2019-04-26T16:20:48.177Z,2.10
2019-04-26T16:23:19.936Z,1.72
2019-04-26T16:25:52.563Z,1.60
2019-04-26T16:28:33.914Z,1.73
2019-04-26T16:31:25.521Z,1.62
2019-04-26T16:34:04.127Z,1.63
2019-04-26T16:36:36.571Z,1.62
2019-04-26T16:39:09.517Z,1.85
2019-04-26T16:41:42.155Z,1.80
2019-04-26T16:44:14.092Z,1.60
2019-04-26T16:46:45.918Z,1.67
2019-04-26T16:49:17.735Z,2.67
2019-04-26T16:51:53.826Z,1.80
2019-04-26T16:54:26.670Z,2.57
2019-04-26T16:56:58.936Z,1.37
2019-04-26T16:59:30.573Z,2.13
2019-04-26T17:02:02.778Z,1.60
2019-04-26T17:04:36.278Z,2.10
2019-04-26T17:07:08.204Z,1.57
2019-04-26T17:09:56.514Z,1.63
2019-04-26T17:12:14.852Z,1.80
2019-04-26T17:14:48.999Z,1.70
2019-04-26T17:17:22.308Z,2.37
2019-04-26T17:19:54.343Z,3.40
2019-04-26T17:22:56.858Z,3.27
2019-04-26T17:25:32.361Z,3.83
2019-04-26T17:28:04.205Z,3.80
2019-04-26T17:30:41.049Z,4.60
2019-04-26T17:33:09.673Z,4.43
2019-04-26T17:35:42.074Z,4.57
2019-04-26T17:38:14.009Z,4.13
2019-04-26T17:40:46.287Z,4.63
2019-04-26T17:43:18.142Z,4.10
2019-04-26T17:45:51.528Z,4.77
2019-04-26T17:48:23.523Z,5.70
2019-04-26T17:50:55.412Z,4.10
2019-04-26T17:53:31.156Z,4.47
2019-04-26T17:56:00.799Z,3.97
2019-04-26T17:58:35.780Z,4.87
2019-04-26T18:01:06.629Z,3.97
2019-04-26T18:03:38.415Z,4.83
2019-04-26T18:06:13.979Z,4.20
2019-04-26T18:08:51.738Z,5.13
2019-04-26T18:11:20.211Z,4.47
2019-04-26T18:13:52.323Z,3.77
2019-04-26T18:16:29.187Z,3.80
2019-04-26T18:19:17.828Z,4.10
2019-04-26T18:22:00.075Z,3.80
2019-04-26T18:24:34.872Z,3.30
2019-04-26T18:27:05.817Z,3.40
2019-04-26T18:29:37.519Z,4.10
2019-04-26T18:32:09.628Z,4.20
2019-04-26T18:34:43.388Z,4.20
2019-04-26T18:37:15.257Z,5.67
2019-04-26T18:39:46.968Z,4.03
2019-04-26T18:42:18.680Z,3.73
2019-04-26T18:44:50.384Z,4.00
2019-04-26T18:47:29.104Z,3.40
2019-04-26T18:50:00.843Z,3.23
2019-04-26T18:52:37.192Z,3.63
2019-04-26T18:55:29.026Z,3.57
2019-04-26T18:58:01.788Z,3.43
2019-04-26T19:00:34.716Z,3.00
2019-04-26T19:03:06.520Z,3.10
2019-04-26T19:05:38.350Z,3.67
2019-04-26T19:08:10.139Z,3.40
2019-04-26T19:10:43.547Z,4.53
2019-04-26T19:13:30.475Z,4.30
2019-04-26T19:16:16.721Z,4.17
2019-04-26T19:18:54.639Z,4.50
2019-04-26T19:21:38.998Z,3.80
2019-04-26T19:24:11.654Z,6.47
2019-04-26T19:26:44.138Z,4.40
2019-04-26T19:29:17.822Z,4.10
2019-04-26T19:31:47.272Z,4.13
2019-04-26T19:34:18.995Z,5.03
2019-04-26T19:36:52.369Z,4.83
2019-04-26T19:39:31.910Z,5.00
2019-04-26T19:41:58.687Z,4.40
2019-04-26T19:44:31.578Z,4.47
2019-04-26T19:47:29.465Z,3.77
2019-04-26T19:50:22.084Z,4.97
2019-04-26T19:53:04.403Z,4.10
2019-04-26T19:55:51.841Z,4.07
2019-04-26T19:58:26.136Z,4.50
2019-04-26T20:00:58.645Z,3.23
2019-04-26T20:03:32.068Z,4.10
2019-04-26T20:06:05.010Z,4.03
2019-04-26T20:08:44.397Z,3.83
2019-04-26T20:11:12.886Z,4.10
2019-04-26T20:13:46.997Z,3.50
2019-04-26T20:16:18.025Z,3.57
2019-04-26T20:18:49.751Z,3.47
2019-04-26T20:21:21.833Z,3.63
2019-04-26T20:23:54.551Z,4.60
2019-04-26T20:26:26.496Z,4.93
2019-04-26T20:28:58.222Z,4.17
2019-04-26T20:31:37.487Z,4.27
2019-04-26T20:34:14.470Z,4.03
2019-04-26T20:36:47.576Z,5.20
2019-04-26T20:39:20.898Z,5.07
2019-04-26T20:42:01.128Z,4.73
2019-04-26T20:44:28.765Z,5.20
2019-04-26T20:47:01.080Z,5.90
2019-04-26T20:49:32.811Z,5.80
2019-04-26T20:52:05.349Z,7.03
2019-04-26T20:54:37.233Z,10.07
2019-04-26T20:57:09.035Z,11.20
2019-04-26T20:59:41.656Z,11.20
2019-04-26T21:02:16.250Z,12.90
2019-04-26T21:04:48.212Z,14.57
2019-04-26T21:07:21.778Z,15.57
2019-04-26T21:09:53.665Z,16.20
2019-04-26T21:12:25.485Z,16.73
2019-04-26T21:14:57.391Z,19.93
2019-04-26T21:17:29.148Z,18.63
2019-04-26T21:20:02.143Z,17.53
2019-04-26T21:22:34.181Z,21.57
2019-04-26T21:25:11.873Z,19.07
2019-04-26T21:28:08.952Z,18.60
2019-04-26T21:31:03.443Z,18.33
2019-04-26T21:33:39.000Z,20.80
2019-04-26T21:36:22.874Z,19.57
2019-04-26T21:39:05.772Z,19.20
2019-04-26T21:41:34.113Z,20.13
2019-04-26T21:44:07.678Z,19.30
2019-04-26T21:46:39.556Z,20.87
2019-04-26T21:49:13.661Z,19.50
2019-04-26T21:51:51.316Z,19.53
2019-04-26T21:54:19.402Z,19.87
2019-04-26T21:56:51.222Z,20.17
2019-04-26T21:59:24.382Z,17.83
2019-04-26T22:01:59.213Z,17.50
2019-04-26T22:04:36.340Z,15.87
2019-04-26T22:07:07.618Z,16.07
2019-04-26T22:09:49.200Z,14.37
2019-04-26T22:12:21.019Z,14.57
2019-04-26T22:15:13.792Z,15.50
2019-04-26T22:17:47.940Z,13.53
2019-04-26T22:20:39.588Z,13.23
2019-04-26T22:23:27.488Z,13.47
2019-04-26T22:26:00.209Z,13.97
2019-04-26T22:28:35.915Z,13.40
2019-04-26T22:31:08.467Z,13.13
2019-04-26T22:33:40.265Z,13.20
2019-04-26T22:36:13.166Z,14.50
2019-04-26T22:38:45.079Z,12.13
2019-04-26T22:41:16.809Z,13.63
2019-04-26T22:43:55.250Z,12.60
2019-04-26T22:47:03.210Z,14.23
2019-04-26T22:49:36.844Z,16.53
2019-04-26T22:52:10.375Z,16.77
2019-04-26T22:54:42.785Z,16.70
2019-04-26T22:57:16.134Z,17.43
2019-04-26T22:59:50.191Z,18.13
2019-04-26T23:02:25.846Z,20.33
2019-04-26T23:04:56.065Z,20.33
2019-04-26T23:07:28.642Z,20.40
2019-04-26T23:10:00.453Z,19.83
2019-04-26T23:13:04.584Z,19.83
2019-04-26T23:15:50.952Z,20.07
2019-04-26T23:18:38.688Z,21.23
2019-04-26T23:21:15.525Z,19.43
2019-04-26T23:23:47.356Z,19.57
2019-04-26T23:26:19.097Z,21.00
2019-04-26T23:28:50.832Z,18.70
2019-04-26T23:31:23.699Z,19.33
2019-04-26T23:33:55.587Z,21.37
2019-04-26T23:36:27.348Z,19.57
2019-04-26T23:38:59.060Z,20.07
2019-04-26T23:41:30.796Z,18.93
2019-04-26T23:44:06.461Z,19.20
2019-04-26T23:46:36.319Z,17.57
2019-04-26T23:49:08.129Z,17.60
2019-04-26T23:51:42.999Z,16.83
2019-04-26T23:54:13.752Z,17.80
2019-04-26T23:56:45.647Z,17.47
2019-04-26T23:59:20.810Z,16.87
